sensor_id;sensor_type;location;lat;lon;timestamp;pressure;altitude;pressure_sealevel;temperature;humidity
16664;BME280;8445;51.270;9.434;2023-05-11T00:01:06;99196.19;;;20.11;44.52
16664;BME280;8445;51.270;9.434;2023-05-11T00:03:32;99204.41;;;20.10;43.59
16664;BME280;8445;51.270;9.434;2023-05-11T00:06:00;99193.00;;;20.08;43.71
16664;BME280;8445;51.270;9.434;2023-05-11T00:08:26;99195.53;;;20.09;43.34
16664;BME280;8445;51.270;9.434;2023-05-11T00:10:52;99204.59;;;20.08;43.06
16664;BME280;8445;51.270;9.434;2023-05-11T00:13:18;99206.44;;;20.08;43.40
16664;BME280;8445;51.270;9.434;2023-05-11T00:15:44;99206.06;;;20.11;43.76
16664;BME280;8445;51.270;9.434;2023-05-11T00:18:10;99201.19;;;20.14;43.41
16664;BME280;8445;51.270;9.434;2023-05-11T00:20:35;99204.31;;;20.18;43.43
16664;BME280;8445;51.270;9.434;2023-05-11T00:23:01;99203.31;;;20.19;43.47
16664;BME280;8445;51.270;9.434;2023-05-11T00:25:26;99203.50;;;20.18;43.64
16664;BME280;8445;51.270;9.434;2023-05-11T00:27:52;99198.31;;;20.16;43.32
16664;BME280;8445;51.270;9.434;2023-05-11T00:30:17;99202.66;;;20.17;43.67
16664;BME280;8445;51.270;9.434;2023-05-11T00:32:43;99196.91;;;20.20;43.61
16664;BME280;8445;51.270;9.434;2023-05-11T00:35:10;99201.00;;;20.16;43.33
16664;BME280;8445;51.270;9.434;2023-05-11T00:37:39;99204.97;;;20.20;44.16
16664;BME280;8445;51.270;9.434;2023-05-11T00:40:05;99197.13;;;20.19;43.41
16664;BME280;8445;51.270;9.434;2023-05-11T00:42:32;99197.13;;;20.19;43.69
16664;BME280;8445;51.270;9.434;2023-05-11T00:44:58;99190.53;;;20.21;43.78
16664;BME280;8445;51.270;9.434;2023-05-11T00:47:24;99198.22;;;20.24;43.56
16664;BME280;8445;51.270;9.434;2023-05-11T00:49:51;99191.19;;;20.23;43.73
16664;BME280;8445;51.270;9.434;2023-05-11T00:52:18;99196.38;;;20.25;43.68
16664;BME280;8445;51.270;9.434;2023-05-11T00:54:44;99189.44;;;20.31;43.58
16664;BME280;8445;51.270;9.434;2023-05-11T00:57:10;99186.19;;;20.35;43.48
16664;BME280;8445;51.270;9.434;2023-05-11T00:59:38;99201.75;;;20.40;43.86
16664;BME280;8445;51.270;9.434;2023-05-11T01:02:04;99195.16;;;20.42;43.62
16664;BME280;8445;51.270;9.434;2023-05-11T01:04:30;99194.06;;;20.37;43.68
16664;BME280;8445;51.270;9.434;2023-05-11T01:09:57;99199.63;;;20.50;45.41
16664;BME280;8445;51.270;9.434;2023-05-11T01:15:13;99193.31;;;20.13;44.22
16664;BME280;8445;51.270;9.434;2023-05-11T01:17:45;99189.88;;;20.19;44.42
16664;BME280;8445;51.270;9.434;2023-05-11T01:20:19;99186.75;;;20.16;44.64
16664;BME280;8445;51.270;9.434;2023-05-11T01:23:18;99193.69;;;20.40;46.04
16664;BME280;8445;51.270;9.434;2023-05-11T01:31:33;99202.13;;;20.37;44.25
16664;BME280;8445;51.270;9.434;2023-05-11T01:34:12;99195.38;;;20.41;44.29
16664;BME280;8445;51.270;9.434;2023-05-11T01:36:47;99198.22;;;20.39;44.99
16664;BME280;8445;51.270;9.434;2023-05-11T01:39:14;99191.56;;;20.35;43.93
16664;BME280;8445;51.270;9.434;2023-05-11T01:41:44;99192.78;;;20.33;44.74
16664;BME280;8445;51.270;9.434;2023-05-11T01:44:15;99195.91;;;20.36;44.23
16664;BME280;8445;51.270;9.434;2023-05-11T01:46:43;99191.09;;;20.32;44.29
16664;BME280;8445;51.270;9.434;2023-05-11T01:49:09;99194.34;;;20.27;44.25
16664;BME280;8445;51.270;9.434;2023-05-11T01:51:37;99186.09;;;20.28;43.97
16664;BME280;8445;51.270;9.434;2023-05-11T01:54:08;99197.13;;;20.34;44.62
16664;BME280;8445;51.270;9.434;2023-05-11T01:56:40;99198.50;;;20.29;44.51
16664;BME280;8445;51.270;9.434;2023-05-11T01:59:06;99199.97;;;20.32;44.23
16664;BME280;8445;51.270;9.434;2023-05-11T02:01:33;99206.13;;;20.41;44.52
16664;BME280;8445;51.270;9.434;2023-05-11T02:04:01;99203.72;;;20.46;44.22
16664;BME280;8445;51.270;9.434;2023-05-11T02:06:29;99200.09;;;20.39;44.46
16664;BME280;8445;51.270;9.434;2023-05-11T02:08:57;99204.63;;;20.38;44.77
16664;BME280;8445;51.270;9.434;2023-05-11T02:11:25;99201.94;;;20.38;44.63
16664;BME280;8445;51.270;9.434;2023-05-11T02:13:55;99199.81;;;20.34;44.69
16664;BME280;8445;51.270;9.434;2023-05-11T02:16:23;99195.25;;;20.34;44.88
16664;BME280;8445;51.270;9.434;2023-05-11T02:18:50;99201.47;;;20.35;44.27
16664;BME280;8445;51.270;9.434;2023-05-11T02:21:16;99199.44;;;20.37;44.64
16664;BME280;8445;51.270;9.434;2023-05-11T02:23:47;99199.25;;;20.38;44.36
16664;BME280;8445;51.270;9.434;2023-05-11T02:26:14;99201.09;;;20.38;44.83
16664;BME280;8445;51.270;9.434;2023-05-11T02:28:41;99193.34;;;20.43;44.64
16664;BME280;8445;51.270;9.434;2023-05-11T02:31:15;99193.69;;;20.55;44.93
16664;BME280;8445;51.270;9.434;2023-05-11T02:33:47;99192.13;;;20.46;44.32
16664;BME280;8445;51.270;9.434;2023-05-11T02:36:18;99192.47;;;20.42;44.84
16664;BME280;8445;51.270;9.434;2023-05-11T02:38:45;99195.81;;;20.44;44.41
16664;BME280;8445;51.270;9.434;2023-05-11T02:41:17;99197.69;;;20.44;45.31
16664;BME280;8445;51.270;9.434;2023-05-11T02:43:48;99199.91;;;20.25;45.50
16664;BME280;8445;51.270;9.434;2023-05-11T02:46:28;99203.97;;;20.36;46.73
16664;BME280;8445;51.270;9.434;2023-05-11T02:48:56;99204.63;;;20.23;45.48
16664;BME280;8445;51.270;9.434;2023-05-11T02:51:31;99200.19;;;20.31;45.75
16664;BME280;8445;51.270;9.434;2023-05-11T02:54:00;99198.22;;;20.24;44.83
16664;BME280;8445;51.270;9.434;2023-05-11T02:56:30;99200.91;;;20.24;45.19
16664;BME280;8445;51.270;9.434;2023-05-11T02:58:55;99192.56;;;20.19;45.07
16664;BME280;8445;51.270;9.434;2023-05-11T03:01:24;99199.59;;;20.20;45.12
16664;BME280;8445;51.270;9.434;2023-05-11T03:03:50;99200.19;;;20.31;45.10
16664;BME280;8445;51.270;9.434;2023-05-11T03:06:16;99203.50;;;20.33;45.06
16664;BME280;8445;51.270;9.434;2023-05-11T03:08:44;99201.09;;;20.38;44.97
16664;BME280;8445;51.270;9.434;2023-05-11T03:11:10;99200.81;;;20.33;45.13
16664;BME280;8445;51.270;9.434;2023-05-11T03:13:40;99200.81;;;20.33;44.87
16664;BME280;8445;51.270;9.434;2023-05-11T03:16:08;99197.50;;;20.31;45.36
16664;BME280;8445;51.270;9.434;2023-05-11T03:18:34;99201.03;;;20.31;45.33
16664;BME280;8445;51.270;9.434;2023-05-11T03:21:01;99204.72;;;20.30;45.30
16664;BME280;8445;51.270;9.434;2023-05-11T03:23:28;99195.47;;;20.33;45.11
16664;BME280;8445;51.270;9.434;2023-05-11T03:25:55;99200.63;;;20.34;45.20
16664;BME280;8445;51.270;9.434;2023-05-11T03:28:23;99196.56;;;20.38;45.28
16664;BME280;8445;51.270;9.434;2023-05-11T03:31:00;99197.22;;;20.40;45.16
16664;BME280;8445;51.270;9.434;2023-05-11T03:33:25;99197.94;;;20.34;45.23
16664;BME280;8445;51.270;9.434;2023-05-11T03:35:52;99196.84;;;20.28;45.23
16664;BME280;8445;51.270;9.434;2023-05-11T03:38:21;99190.53;;;20.21;45.54
16664;BME280;8445;51.270;9.434;2023-05-11T03:40:51;99189.53;;;20.22;45.54
16664;BME280;8445;51.270;9.434;2023-05-11T03:43:18;99188.28;;;20.10;45.79
16664;BME280;8445;51.270;9.434;2023-05-11T03:45:48;99186.47;;;20.25;45.37
16664;BME280;8445;51.270;9.434;2023-05-11T03:48:19;99188.41;;;20.32;45.57
16664;BME280;8445;51.270;9.434;2023-05-11T03:50:48;99185.16;;;20.21;45.86
16664;BME280;8445;51.270;9.434;2023-05-11T03:53:15;99190.72;;;20.35;45.47
16664;BME280;8445;51.270;9.434;2023-05-11T03:55:43;99187.03;;;20.36;45.55
16664;BME280;8445;51.270;9.434;2023-05-11T03:58:11;99191.19;;;20.38;45.72
16664;BME280;8445;51.270;9.434;2023-05-11T04:00:40;99183.88;;;20.47;45.60
16664;BME280;8445;51.270;9.434;2023-05-11T04:03:07;99186.28;;;20.42;45.42
16664;BME280;8445;51.270;9.434;2023-05-11T04:05:33;99185.72;;;20.47;45.12
16664;BME280;8445;51.270;9.434;2023-05-11T04:08:01;99193.25;;;20.51;45.13
16664;BME280;8445;51.270;9.434;2023-05-11T04:10:27;99191.84;;;20.55;45.32
16664;BME280;8445;51.270;9.434;2023-05-11T04:12:52;99190.19;;;20.54;45.36
16664;BME280;8445;51.270;9.434;2023-05-11T04:15:19;99198.53;;;20.59;45.22
16664;BME280;8445;51.270;9.434;2023-05-11T04:17:44;99192.38;;;20.66;45.30
16664;BME280;8445;51.270;9.434;2023-05-11T04:20:10;99195.72;;;20.68;45.35
16664;BME280;8445;51.270;9.434;2023-05-11T04:22:38;99193.94;;;20.75;45.37
16664;BME280;8445;51.270;9.434;2023-05-11T04:25:04;99208.41;;;20.74;45.13
16664;BME280;8445;51.270;9.434;2023-05-11T04:27:33;99193.22;;;20.81;46.03
16664;BME280;8445;51.270;9.434;2023-05-11T04:30:01;99203.22;;;20.87;45.13
16664;BME280;8445;51.270;9.434;2023-05-11T04:32:27;99200.16;;;20.91;45.42
16664;BME280;8445;51.270;9.434;2023-05-11T04:34:55;99200.22;;;20.97;45.10
16664;BME280;8445;51.270;9.434;2023-05-11T04:37:22;99204.16;;;20.95;45.47
16664;BME280;8445;51.270;9.434;2023-05-11T04:39:51;99208.94;;;20.99;45.38
16664;BME280;8445;51.270;9.434;2023-05-11T04:42:16;99204.84;;;21.03;45.29
16664;BME280;8445;51.270;9.434;2023-05-11T04:44:45;99203.66;;;21.06;45.14
16664;BME280;8445;51.270;9.434;2023-05-11T04:47:13;99207.38;;;21.05;45.54
16664;BME280;8445;51.270;9.434;2023-05-11T04:49:39;99202.56;;;20.85;45.35
16664;BME280;8445;51.270;9.434;2023-05-11T04:52:05;99207.59;;;20.88;45.56
16664;BME280;8445;51.270;9.434;2023-05-11T04:54:31;99212.50;;;20.85;45.41
16664;BME280;8445;51.270;9.434;2023-05-11T04:56:56;99212.50;;;20.85;45.57
16664;BME280;8445;51.270;9.434;2023-05-11T04:59:24;99209.91;;;20.92;45.65
16664;BME280;8445;51.270;9.434;2023-05-11T05:01:50;99208.50;;;20.96;45.82
16664;BME280;8445;51.270;9.434;2023-05-11T05:04:15;99210.22;;;21.03;45.56
16664;BME280;8445;51.270;9.434;2023-05-11T05:06:40;99215.31;;;21.13;45.80
16664;BME280;8445;51.270;9.434;2023-05-11T05:09:08;99209.44;;;21.25;45.55
16664;BME280;8445;51.270;9.434;2023-05-11T05:11:35;99211.34;;;21.31;45.56
16664;BME280;8445;51.270;9.434;2023-05-11T05:14:00;99215.34;;;21.35;45.33
16664;BME280;8445;51.270;9.434;2023-05-11T05:16:26;99224.50;;;21.41;45.56
16664;BME280;8445;51.270;9.434;2023-05-11T05:18:51;99220.25;;;21.53;45.37
16664;BME280;8445;51.270;9.434;2023-05-11T05:21:16;99209.97;;;21.57;45.47
16664;BME280;8445;51.270;9.434;2023-05-11T05:23:43;99212.06;;;21.61;45.33
16664;BME280;8445;51.270;9.434;2023-05-11T05:26:09;99210.50;;;21.67;45.42
16664;BME280;8445;51.270;9.434;2023-05-11T05:28:36;99213.19;;;21.67;45.42
16664;BME280;8445;51.270;9.434;2023-05-11T05:31:06;99217.34;;;21.70;45.69
16664;BME280;8445;51.270;9.434;2023-05-11T05:33:31;99219.22;;;21.69;45.64
16664;BME280;8445;51.270;9.434;2023-05-11T05:35:57;99214.75;;;21.76;45.90
16664;BME280;8445;51.270;9.434;2023-05-11T05:38:22;99218.03;;;21.79;45.92
16664;BME280;8445;51.270;9.434;2023-05-11T05:40:48;99221.19;;;21.82;45.89
16664;BME280;8445;51.270;9.434;2023-05-11T05:43:14;99217.50;;;21.90;45.87
16664;BME280;8445;51.270;9.434;2023-05-11T05:45:43;99224.47;;;21.77;46.04
16664;BME280;8445;51.270;9.434;2023-05-11T05:48:08;99227.78;;;21.80;46.39
16664;BME280;8445;51.270;9.434;2023-05-11T05:50:34;99231.28;;;21.73;46.72
16664;BME280;8445;51.270;9.434;2023-05-11T05:53:00;99231.75;;;21.84;46.49
16664;BME280;8445;51.270;9.434;2023-05-11T05:55:27;99230.59;;;21.93;46.52
16664;BME280;8445;51.270;9.434;2023-05-11T05:57:55;99230.47;;;21.80;46.99
16664;BME280;8445;51.270;9.434;2023-05-11T06:00:20;99239.88;;;21.62;47.92
16664;BME280;8445;51.270;9.434;2023-05-11T06:02:53;99239.69;;;21.92;47.31
16664;BME280;8445;51.270;9.434;2023-05-11T06:05:23;99242.75;;;22.11;46.81
16664;BME280;8445;51.270;9.434;2023-05-11T06:07:48;99240.41;;;22.29;46.89
16664;BME280;8445;51.270;9.434;2023-05-11T06:10:14;99252.28;;;22.42;46.65
16664;BME280;8445;51.270;9.434;2023-05-11T06:12:40;99242.47;;;22.56;46.67
16664;BME280;8445;51.270;9.434;2023-05-11T06:15:05;99250.41;;;22.35;47.04
16664;BME280;8445;51.270;9.434;2023-05-11T06:17:34;99251.97;;;22.23;47.62
16664;BME280;8445;51.270;9.434;2023-05-11T06:20:00;99252.94;;;22.44;47.20
16664;BME280;8445;51.270;9.434;2023-05-11T06:22:28;99252.16;;;22.50;47.32
16664;BME280;8445;51.270;9.434;2023-05-11T06:24:53;99247.88;;;22.62;47.21
16664;BME280;8445;51.270;9.434;2023-05-11T06:27:20;99248.41;;;22.44;47.28
16664;BME280;8445;51.270;9.434;2023-05-11T06:29:46;99253.81;;;22.44;47.40
16664;BME280;8445;51.270;9.434;2023-05-11T06:32:11;99254.97;;;22.42;47.29
16664;BME280;8445;51.270;9.434;2023-05-11T06:34:37;99248.25;;;22.24;47.52
16664;BME280;8445;51.270;9.434;2023-05-11T06:37:04;99246.72;;;22.15;47.67
16664;BME280;8445;51.270;9.434;2023-05-11T06:39:29;99250.59;;;22.05;47.67
16664;BME280;8445;51.270;9.434;2023-05-11T06:41:55;99247.28;;;22.10;47.56
16664;BME280;8445;51.270;9.434;2023-05-11T06:44:20;99250.31;;;22.22;47.25
16664;BME280;8445;51.270;9.434;2023-05-11T06:46:49;99245.81;;;22.29;47.22
16664;BME280;8445;51.270;9.434;2023-05-11T06:49:15;99254.69;;;22.52;46.74
16664;BME280;8445;51.270;9.434;2023-05-11T06:51:43;99247.66;;;22.57;46.57
16664;BME280;8445;51.270;9.434;2023-05-11T06:54:08;99238.13;;;22.61;46.31
16664;BME280;8445;51.270;9.434;2023-05-11T06:56:35;99251.13;;;22.86;46.44
16664;BME280;8445;51.270;9.434;2023-05-11T06:59:01;99254.09;;;23.05;46.23
16664;BME280;8445;51.270;9.434;2023-05-11T07:01:26;99255.03;;;23.26;46.01
16664;BME280;8445;51.270;9.434;2023-05-11T07:03:55;99254.06;;;23.40;46.12
16664;BME280;8445;51.270;9.434;2023-05-11T07:06:20;99248.47;;;23.55;45.87
16664;BME280;8445;51.270;9.434;2023-05-11T07:08:46;99262.59;;;23.64;45.74
16664;BME280;8445;51.270;9.434;2023-05-11T07:11:11;99254.94;;;23.74;45.53
16664;BME280;8445;51.270;9.434;2023-05-11T07:13:37;99257.25;;;23.84;45.50
16664;BME280;8445;51.270;9.434;2023-05-11T07:16:03;99259.78;;;23.99;45.94
16664;BME280;8445;51.270;9.434;2023-05-11T07:18:28;99253.72;;;24.04;45.72
16664;BME280;8445;51.270;9.434;2023-05-11T07:20:54;99255.81;;;24.08;45.69
16664;BME280;8445;51.270;9.434;2023-05-11T07:23:19;99252.88;;;24.30;45.82
16664;BME280;8445;51.270;9.434;2023-05-11T07:25:44;99254.31;;;24.53;45.86
16664;BME280;8445;51.270;9.434;2023-05-11T07:28:10;99252.19;;;24.62;45.99
16664;BME280;8445;51.270;9.434;2023-05-11T07:30:35;99250.94;;;24.57;45.56
16664;BME280;8445;51.270;9.434;2023-05-11T07:33:01;99258.44;;;24.62;45.52
16664;BME280;8445;51.270;9.434;2023-05-11T07:35:27;99252.22;;;24.55;45.88
16664;BME280;8445;51.270;9.434;2023-05-11T07:37:53;99254.50;;;24.58;45.81
16664;BME280;8445;51.270;9.434;2023-05-11T07:40:18;99254.94;;;24.55;46.18
16664;BME280;8445;51.270;9.434;2023-05-11T07:42:44;99249.69;;;24.80;46.18
16664;BME280;8445;51.270;9.434;2023-05-11T07:45:09;99253.19;;;24.81;46.14
16664;BME280;8445;51.270;9.434;2023-05-11T07:47:35;99258.38;;;24.96;46.11
16664;BME280;8445;51.270;9.434;2023-05-11T07:50:00;99249.56;;;25.07;45.99
16664;BME280;8445;51.270;9.434;2023-05-11T07:52:26;99258.94;;;25.05;46.17
16664;BME280;8445;51.270;9.434;2023-05-11T07:54:51;99262.91;;;25.09;46.17
16664;BME280;8445;51.270;9.434;2023-05-11T07:57:18;99255.56;;;25.16;46.17
16664;BME280;8445;51.270;9.434;2023-05-11T07:59:43;99255.66;;;25.35;45.85
16664;BME280;8445;51.270;9.434;2023-05-11T08:02:09;99256.47;;;25.49;45.85
16664;BME280;8445;51.270;9.434;2023-05-11T08:04:35;99256.81;;;25.20;45.85
16664;BME280;8445;51.270;9.434;2023-05-11T08:07:03;99256.41;;;25.16;46.13
16664;BME280;8445;51.270;9.434;2023-05-11T08:09:29;99261.28;;;24.94;46.36
16664;BME280;8445;51.270;9.434;2023-05-11T08:11:54;99262.59;;;24.71;46.82
16664;BME280;8445;51.270;9.434;2023-05-11T08:14:28;99260.31;;;24.75;47.01
16664;BME280;8445;51.270;9.434;2023-05-11T08:16:53;99260.91;;;24.84;46.87
16664;BME280;8445;51.270;9.434;2023-05-11T08:19:19;99254.22;;;24.93;46.69
16664;BME280;8445;51.270;9.434;2023-05-11T08:21:44;99259.09;;;25.23;46.40
16664;BME280;8445;51.270;9.434;2023-05-11T08:24:11;99267.03;;;25.18;46.23
16664;BME280;8445;51.270;9.434;2023-05-11T08:26:36;99263.72;;;25.09;46.42
16664;BME280;8445;51.270;9.434;2023-05-11T08:29:02;99266.50;;;25.35;46.29
16664;BME280;8445;51.270;9.434;2023-05-11T08:31:29;99253.91;;;25.60;46.31
16664;BME280;8445;51.270;9.434;2023-05-11T08:33:54;99261.41;;;25.90;45.62
16664;BME280;8445;51.270;9.434;2023-05-11T08:36:22;99259.78;;;26.15;45.84
16664;BME280;8445;51.270;9.434;2023-05-11T08:38:47;99255.50;;;26.26;45.38
16664;BME280;8445;51.270;9.434;2023-05-11T08:41:13;99254.94;;;26.42;45.43
16664;BME280;8445;51.270;9.434;2023-05-11T08:43:39;99256.38;;;26.63;45.15
16664;BME280;8445;51.270;9.434;2023-05-11T08:46:05;99263.38;;;26.71;45.38
16664;BME280;8445;51.270;9.434;2023-05-11T08:48:34;99261.81;;;27.01;44.94
16664;BME280;8445;51.270;9.434;2023-05-11T08:51:00;99255.91;;;27.04;44.72
16664;BME280;8445;51.270;9.434;2023-05-11T08:53:30;99262.66;;;27.01;44.56
16664;BME280;8445;51.270;9.434;2023-05-11T08:55:57;99259.19;;;26.94;44.55
16664;BME280;8445;51.270;9.434;2023-05-11T08:58:23;99263.22;;;26.66;44.73
16664;BME280;8445;51.270;9.434;2023-05-11T09:00:49;99260.78;;;26.39;44.91
16664;BME280;8445;51.270;9.434;2023-05-11T09:03:18;99263.72;;;26.38;45.23
16664;BME280;8445;51.270;9.434;2023-05-11T09:05:50;99256.63;;;26.37;45.60
16664;BME280;8445;51.270;9.434;2023-05-11T09:08:17;99254.19;;;26.28;46.27
16664;BME280;8445;51.270;9.434;2023-05-11T09:10:43;99251.91;;;26.51;46.21
16664;BME280;8445;51.270;9.434;2023-05-11T09:13:09;99257.03;;;26.77;46.15
16664;BME280;8445;51.270;9.434;2023-05-11T09:15:35;99256.53;;;26.87;46.10
16664;BME280;8445;51.270;9.434;2023-05-11T09:18:00;99244.16;;;27.10;45.47
16664;BME280;8445;51.270;9.434;2023-05-11T09:20:33;99255.16;;;26.97;44.67
16664;BME280;8445;51.270;9.434;2023-05-11T09:22:59;99250.31;;;27.17;45.66
16664;BME280;8445;51.270;9.434;2023-05-11T09:25:28;99251.78;;;27.01;45.75
16664;BME280;8445;51.270;9.434;2023-05-11T09:27:58;99253.38;;;26.72;45.23
16664;BME280;8445;51.270;9.434;2023-05-11T09:30:23;99255.47;;;26.70;46.15
16664;BME280;8445;51.270;9.434;2023-05-11T09:32:50;99250.81;;;26.77;46.17
16664;BME280;8445;51.270;9.434;2023-05-11T09:35:25;99257.28;;;26.95;46.44
16664;BME280;8445;51.270;9.434;2023-05-11T09:37:57;99260.53;;;27.03;45.99
16664;BME280;8445;51.270;9.434;2023-05-11T09:40:24;99254.66;;;27.06;46.31
16664;BME280;8445;51.270;9.434;2023-05-11T09:42:50;99257.59;;;27.54;46.03
16664;BME280;8445;51.270;9.434;2023-05-11T09:45:35;99258.97;;;27.99;40.91
16664;BME280;8445;51.270;9.434;2023-05-11T09:48:02;99247.44;;;28.39;45.37
16664;BME280;8445;51.270;9.434;2023-05-11T09:50:34;99249.84;;;28.89;44.25
16664;BME280;8445;51.270;9.434;2023-05-11T09:53:01;99252.03;;;29.44;44.22
16664;BME280;8445;51.270;9.434;2023-05-11T09:55:26;99243.56;;;29.58;43.73
16664;BME280;8445;51.270;9.434;2023-05-11T09:57:56;99250.91;;;29.28;43.69
16664;BME280;8445;51.270;9.434;2023-05-11T10:00:22;99247.59;;;28.85;44.16
16664;BME280;8445;51.270;9.434;2023-05-11T10:03:05;99238.88;;;28.60;41.70
16664;BME280;8445;51.270;9.434;2023-05-11T10:05:33;99238.09;;;28.23;44.85
16664;BME280;8445;51.270;9.434;2023-05-11T10:08:01;99244.00;;;28.32;44.50
16664;BME280;8445;51.270;9.434;2023-05-11T10:10:30;99238.09;;;28.23;44.76
16664;BME280;8445;51.270;9.434;2023-05-11T10:13:00;99235.38;;;28.35;43.91
16664;BME280;8445;51.270;9.434;2023-05-11T10:15:27;99230.47;;;28.61;44.23
16664;BME280;8445;51.270;9.434;2023-05-11T10:17:55;99238.97;;;28.89;43.49
16664;BME280;8445;51.270;9.434;2023-05-11T10:20:23;99236.97;;;28.60;43.62
16664;BME280;8445;51.270;9.434;2023-05-11T10:22:53;99234.75;;;28.45;43.92
16664;BME280;8445;51.270;9.434;2023-05-11T10:25:23;99236.25;;;27.81;42.80
16664;BME280;8445;51.270;9.434;2023-05-11T10:27:50;99231.94;;;27.50;44.16
16664;BME280;8445;51.270;9.434;2023-05-11T10:30:15;99234.94;;;27.42;43.77
16664;BME280;8445;51.270;9.434;2023-05-11T10:32:43;99226.47;;;27.92;43.30
16664;BME280;8445;51.270;9.434;2023-05-11T10:35:09;99220.72;;;28.24;43.19
16664;BME280;8445;51.270;9.434;2023-05-11T10:37:35;99226.34;;;28.59;42.74
16664;BME280;8445;51.270;9.434;2023-05-11T10:40:01;99223.75;;;28.40;43.06
16664;BME280;8445;51.270;9.434;2023-05-11T10:50:46;99229.41;;;28.74;43.17
16664;BME280;8445;51.270;9.434;2023-05-11T10:56:22;99224.59;;;29.34;40.38
16664;BME280;8445;51.270;9.434;2023-05-11T11:02:09;99217.63;;;29.72;42.62
16664;BME280;8445;51.270;9.434;2023-05-11T11:04:48;99215.53;;;28.88;41.18
16664;BME280;8445;51.270;9.434;2023-05-11T11:07:14;99219.66;;;28.25;43.20
16664;BME280;8445;51.270;9.434;2023-05-11T11:10:00;99218.31;;;28.40;40.49
16664;BME280;8445;51.270;9.434;2023-05-11T11:12:30;99220.00;;;28.17;43.00
16664;BME280;8445;51.270;9.434;2023-05-11T11:15:03;99219.06;;;28.23;41.97
16664;BME280;8445;51.270;9.434;2023-05-11T11:17:34;99217.50;;;28.28;42.39
16664;BME280;8445;51.270;9.434;2023-05-11T11:20:02;99217.59;;;27.85;42.24
16664;BME280;8445;51.270;9.434;2023-05-11T11:25:01;99209.34;;;28.28;42.37
16664;BME280;8445;51.270;9.434;2023-05-11T11:30:22;99221.50;;;28.37;38.86
16664;BME280;8445;51.270;9.434;2023-05-11T11:32:53;99225.28;;;28.00;41.13
16664;BME280;8445;51.270;9.434;2023-05-11T11:38:03;99217.00;;;27.10;42.56
16664;BME280;8445;51.270;9.434;2023-05-11T11:40:47;99222.16;;;27.30;41.33
16664;BME280;8445;51.270;9.434;2023-05-11T11:43:24;99212.75;;;27.45;42.22
16664;BME280;8445;51.270;9.434;2023-05-11T11:45:53;99219.50;;;27.96;41.82
16664;BME280;8445;51.270;9.434;2023-05-11T11:48:32;99215.47;;;27.87;41.36
16664;BME280;8445;51.270;9.434;2023-05-11T11:51:11;99216.56;;;28.34;40.99
16664;BME280;8445;51.270;9.434;2023-05-11T11:56:03;99218.31;;;28.40;41.42
16664;BME280;8445;51.270;9.434;2023-05-11T12:03:44;99220.53;;;28.79;41.54
16664;BME280;8445;51.270;9.434;2023-05-11T12:06:14;99220.66;;;28.72;41.37
16664;BME280;8445;51.270;9.434;2023-05-11T12:08:41;99219.03;;;28.47;41.46
16664;BME280;8445;51.270;9.434;2023-05-11T12:11:07;99217.47;;;28.51;41.37
16664;BME280;8445;51.270;9.434;2023-05-11T12:13:33;99217.22;;;28.65;41.38
16664;BME280;8445;51.270;9.434;2023-05-11T12:16:12;99217.44;;;28.75;40.41
16664;BME280;8445;51.270;9.434;2023-05-11T12:18:38;99220.56;;;28.43;41.40
16664;BME280;8445;51.270;9.434;2023-05-11T12:21:04;99213.03;;;28.21;41.44
16664;BME280;8445;51.270;9.434;2023-05-11T12:23:30;99209.59;;;28.14;41.48
16664;BME280;8445;51.270;9.434;2023-05-11T12:26:03;99219.63;;;27.90;40.22
16664;BME280;8445;51.270;9.434;2023-05-11T12:28:29;99209.09;;;27.93;41.61
16664;BME280;8445;51.270;9.434;2023-05-11T12:30:55;99211.09;;;27.44;42.10
16664;BME280;8445;51.270;9.434;2023-05-11T12:33:21;99209.44;;;27.43;41.83
16664;BME280;8445;51.270;9.434;2023-05-11T12:35:53;99212.31;;;27.48;41.19
16664;BME280;8445;51.270;9.434;2023-05-11T12:38:19;99203.97;;;27.61;41.10
16664;BME280;8445;51.270;9.434;2023-05-11T12:40:49;99205.78;;;27.91;40.25
16664;BME280;8445;51.270;9.434;2023-05-11T12:43:21;99208.50;;;26.69;41.14
16664;BME280;8445;51.270;9.434;2023-05-11T12:45:47;99203.84;;;26.39;41.07
16664;BME280;8445;51.270;9.434;2023-05-11T12:48:13;99206.78;;;26.12;41.21
16664;BME280;8445;51.270;9.434;2023-05-11T12:50:40;99200.50;;;25.93;41.28
16664;BME280;8445;51.270;9.434;2023-05-11T12:53:12;99203.09;;;26.07;41.54
16664;BME280;8445;51.270;9.434;2023-05-11T12:55:39;99201.13;;;25.95;41.97
16664;BME280;8445;51.270;9.434;2023-05-11T12:58:12;99208.03;;;26.16;41.91
16664;BME280;8445;51.270;9.434;2023-05-11T13:00:57;99206.38;;;26.15;42.61
16664;BME280;8445;51.270;9.434;2023-05-11T13:03:24;99201.28;;;26.26;41.80
16664;BME280;8445;51.270;9.434;2023-05-11T13:05:50;99200.66;;;26.24;42.08
16664;BME280;8445;51.270;9.434;2023-05-11T13:08:18;99187.63;;;26.14;41.92
16664;BME280;8445;51.270;9.434;2023-05-11T13:10:44;99191.69;;;26.23;41.18
16664;BME280;8445;51.270;9.434;2023-05-11T13:13:09;99199.97;;;26.28;41.01
16664;BME280;8445;51.270;9.434;2023-05-11T13:15:49;99193.59;;;26.41;40.61
16664;BME280;8445;51.270;9.434;2023-05-11T13:18:16;99200.41;;;25.81;40.91
16664;BME280;8445;51.270;9.434;2023-05-11T13:20:41;99199.78;;;25.54;41.31
16664;BME280;8445;51.270;9.434;2023-05-11T13:23:10;99204.28;;;24.89;42.25
16664;BME280;8445;51.270;9.434;2023-05-11T13:28:11;99197.53;;;24.46;42.49
16664;BME280;8445;51.270;9.434;2023-05-11T13:30:36;99197.13;;;24.42;42.52
16664;BME280;8445;51.270;9.434;2023-05-11T13:33:02;99197.59;;;23.92;43.47
16664;BME280;8445;51.270;9.434;2023-05-11T13:35:28;99197.41;;;23.74;42.89
16664;BME280;8445;51.270;9.434;2023-05-11T13:37:53;99194.50;;;23.82;42.38
16664;BME280;8445;51.270;9.434;2023-05-11T13:40:19;99184.94;;;24.00;41.71
16664;BME280;8445;51.270;9.434;2023-05-11T13:42:44;99192.81;;;23.54;43.00
16664;BME280;8445;51.270;9.434;2023-05-11T13:45:10;99183.38;;;23.16;43.33
16664;BME280;8445;51.270;9.434;2023-05-11T13:47:36;99188.13;;;23.14;43.06
16664;BME280;8445;51.270;9.434;2023-05-11T13:50:02;99191.75;;;22.73;44.02
16664;BME280;8445;51.270;9.434;2023-05-11T13:52:28;99180.47;;;22.56;44.16
16664;BME280;8445;51.270;9.434;2023-05-11T13:54:53;99189.63;;;22.68;43.82
16664;BME280;8445;51.270;9.434;2023-05-11T13:57:19;99180.84;;;22.94;42.90